Time;durP1;ratioP1;P1;durP2;ratioP2;P2;SDS_P1;SDS_P2;PMS_P1;PMS_P2;Temp;Humidity;BMP_temperature;BMP_pressure;BME280_temperature;BME280_humidity;BME280_pressure;Samples;Min_cycle;Max_cycle;Signal;HPM_P1;HPM_P2
2023/03/29 00:02:15;;;;;;;45.50;21.52;;;;;;;16.09;41.26;93747.13;5016548;28;20048;-89
2023/03/29 00:04:41;;;;;;;41.72;21.20;;;;;;;16.10;41.12;93753.31;5034550;28;20041;-90
2023/03/29 00:07:06;;;;;;;31.98;19.83;;;;;;;16.11;41.18;93752.84;5023362;28;20131;-90
2023/03/29 00:09:32;;;;;;;32.80;20.58;;;;;;;16.15;40.93;93741.69;5017464;28;20585;-90
2023/03/29 00:11:58;;;;;;;35.55;19.25;;;;;;;16.24;40.45;93744.22;5017044;28;20403;-90
2023/03/29 00:14:25;;;;;;;29.63;18.52;;;;;;;16.26;40.68;93747.19;4998898;28;20530;-90
2023/03/29 00:16:50;;;;;;;36.88;19.27;;;;;;;16.22;41.05;93748.69;5031850;28;20049;-90
2023/03/29 00:19:16;;;;;;;33.28;19.55;;;;;;;16.21;40.84;93739.75;5030678;28;20458;-90
2023/03/29 00:21:42;;;;;;;43.33;26.90;;;;;;;16.24;40.94;93738.03;5032860;28;20049;-90
2023/03/29 00:24:07;;;;;;;49.15;30.02;;;;;;;16.16;41.04;93743.19;5030953;28;20091;-92
2023/03/29 00:26:32;;;;;;;35.05;23.17;;;;;;;16.23;40.72;93742.75;5014051;28;20562;-90
2023/03/29 00:28:58;;;;;;;29.50;20.80;;;;;;;16.19;41.00;93746.94;5031571;28;20411;-90
2023/03/29 00:31:23;;;;;;;31.25;20.83;;;;;;;16.16;41.07;93737.75;5012040;28;20094;-90
2023/03/29 00:33:49;;;;;;;36.78;21.15;;;;;;;16.16;40.94;93739.72;5030490;28;20029;-91
2023/03/29 00:36:15;;;;;;;30.92;19.67;;;;;;;16.27;40.61;93745.97;5031089;28;20029;-90
2023/03/29 00:38:40;;;;;;;28.58;18.13;;;;;;;16.25;40.56;93737.53;5013561;28;20041;-90
2023/03/29 00:41:06;;;;;;;27.13;18.38;;;;;;;16.26;40.55;93744.47;5003261;28;20103;-92
2023/03/29 00:43:51;;;;;;;32.80;20.88;;;;;;;16.23;40.90;93739.28;5010162;28;20041;-89
2023/03/29 00:46:16;;;;;;;32.05;18.55;;;;;;;16.19;41.06;93739.50;5014456;28;20562;-91
2023/03/29 00:48:42;;;;;;;29.60;19.88;;;;;;;16.17;41.05;93752.13;5014042;28;20060;-90
2023/03/29 00:51:08;;;;;;;30.40;18.58;;;;;;;16.13;41.17;93746.16;5047215;28;20025;-90
2023/03/29 00:53:38;;;;;;;28.23;18.73;;;;;;;16.15;41.14;93741.69;5013623;28;20087;-90
2023/03/29 00:56:06;;;;;;;29.58;18.45;;;;;;;16.14;41.02;93740.22;5021417;28;20531;-90
2023/03/29 00:58:58;;;;;;;34.85;19.02;;;;;;;16.14;41.47;93734.75;4998627;28;20049;-90
2023/03/29 01:01:29;;;;;;;35.63;18.58;;;;;;;16.27;40.56;93732.34;4999765;28;20484;-90
2023/03/29 01:04:01;;;;;;;32.45;18.23;;;;;;;16.23;40.53;93731.09;4998468;28;20079;-91
2023/03/29 01:06:28;;;;;;;27.35;17.83;;;;;;;16.24;41.17;93740.78;4998054;28;20025;-90
2023/03/29 01:08:58;;;;;;;26.80;17.38;;;;;;;16.15;40.70;93735.50;5014071;28;20041;-90
2023/03/29 01:11:29;;;;;;;29.95;17.98;;;;;;;16.11;41.28;93736.47;5014017;28;20063;-91
2023/03/29 01:14:02;;;;;;;36.92;25.50;;;;;;;16.13;41.10;93727.06;4997593;28;20045;-90
2023/03/29 01:16:29;;;;;;;29.60;19.73;;;;;;;16.25;40.49;93729.34;5012898;28;20503;-90
2023/03/29 01:18:57;;;;;;;41.40;25.20;;;;;;;16.20;41.20;93727.34;5013974;28;20045;-90
2023/03/29 01:21:36;;;;;;;35.50;22.92;;;;;;;16.17;40.99;93722.13;5014053;28;20126;-91
2023/03/29 01:24:24;;;;;;;30.35;20.30;;;;;;;16.18;41.26;93707.25;5011425;28;20134;-91
2023/03/29 01:26:52;;;;;;;31.48;18.58;;;;;;;16.23;40.70;93699.09;5029431;28;20051;-91
2023/03/29 01:29:24;;;;;;;26.38;17.58;;;;;;;16.19;40.87;93714.19;5026431;28;20416;-90
2023/03/29 01:31:53;;;;;;;27.30;17.58;;;;;;;16.15;41.06;93708.22;4986580;28;20531;-90
2023/03/29 01:34:30;;;;;;;30.15;18.65;;;;;;;16.15;41.19;93705.50;5006109;28;20148;-90
2023/03/29 01:37:16;;;;;;;27.25;17.30;;;;;;;16.14;41.27;93701.28;5010062;28;20037;-90
2023/03/29 01:39:42;;;;;;;29.70;17.80;;;;;;;16.13;40.76;93697.06;5009313;28;20038;-90
2023/03/29 01:42:13;;;;;;;31.17;17.95;;;;;;;16.13;41.29;93691.59;4997868;28;20549;-89
2023/03/29 01:44:56;;;;;;;31.45;17.95;;;;;;;16.14;41.24;93698.56;5041180;28;20044;-90
2023/03/29 01:47:33;;;;;;;24.55;15.60;;;;;;;16.25;40.42;93701.31;5027834;28;20041;-91
2023/03/29 01:50:06;;;;;;;29.70;17.17;;;;;;;16.20;40.98;93686.44;5009783;28;20037;-90
2023/03/29 01:52:38;;;;;;;29.98;16.20;;;;;;;16.23;41.19;93684.72;5016581;28;20511;-90
2023/03/29 01:55:33;;;;;;;32.08;17.25;;;;;;;16.20;40.81;93682.97;4995752;28;20040;-90
2023/03/29 01:57:58;;;;;;;38.05;17.70;;;;;;;16.20;40.80;93700.09;4994170;28;20059;-89
2023/03/29 02:00:26;;;;;;;28.65;16.00;;;;;;;16.21;40.57;93693.38;4996413;28;20160;-90
2023/03/29 02:02:52;;;;;;;23.27;15.85;;;;;;;16.22;40.49;93694.13;4991961;28;20120;-90
2023/03/29 02:05:18;;;;;;;26.02;16.40;;;;;;;16.20;40.85;93682.97;4993199;28;20497;-90
2023/03/29 02:07:43;;;;;;;33.78;21.40;;;;;;;16.24;40.82;93680.75;5012664;28;20044;-91
2023/03/29 02:10:10;;;;;;;34.72;21.90;;;;;;;16.26;40.37;93667.34;4995599;28;20071;-90
2023/03/29 02:12:36;;;;;;;29.45;20.20;;;;;;;16.22;40.49;93683.97;4995620;28;20066;-90
2023/03/29 02:15:01;;;;;;;32.95;19.17;;;;;;;16.17;41.06;93690.16;4996388;28;20054;-90
2023/03/29 02:17:27;;;;;;;31.77;17.70;;;;;;;16.13;41.00;93692.34;5009142;28;20037;-90
2023/03/29 02:20:06;;;;;;;27.35;17.27;;;;;;;16.20;40.64;93686.44;4996369;28;20099;-89
2023/03/29 02:22:38;;;;;;;26.70;17.65;;;;;;;16.13;41.42;93678.72;5010239;28;20045;-90
2023/03/29 02:25:05;;;;;;;31.38;17.50;;;;;;;16.10;41.57;93674.25;5012311;28;20061;-90
2023/03/29 02:27:30;;;;;;;30.42;17.42;;;;;;;16.07;41.33;93680.66;5015375;28;20049;-90
2023/03/29 02:29:56;;;;;;;44.85;29.80;;;;;;;16.10;41.45;93685.16;5005824;28;20495;-90
2023/03/29 02:32:26;;;;;;;40.95;25.67;;;;;;;16.13;41.42;93699.78;4998097;28;20524;-90
2023/03/29 02:34:59;;;;;;;35.97;22.77;;;;;;;16.14;41.47;93712.94;5014170;28;20105;-91
2023/03/29 02:37:25;;;;;;;26.45;18.55;;;;;;;16.10;41.25;93707.72;5011691;28;20350;-90
2023/03/29 02:39:51;;;;;;;31.20;19.05;;;;;;;16.07;41.39;93707.94;5004684;28;20048;-90
2023/03/29 02:42:18;;;;;;;28.27;17.88;;;;;;;16.06;41.25;93701.00;5010235;28;20021;-90
2023/03/29 02:44:43;;;;;;;29.00;17.83;;;;;;;16.07;41.56;93699.75;4995697;28;20402;-90
2023/03/29 02:47:18;;;;;;;26.90;17.30;;;;;;;16.13;41.29;93699.78;4995281;28;20447;-90
2023/03/29 02:49:44;;;;;;;27.85;17.55;;;;;;;16.13;41.38;93714.16;5028739;28;20147;-91
2023/03/29 02:52:11;;;;;;;29.77;17.55;;;;;;;16.16;41.22;93699.56;5022138;28;20041;-91
2023/03/29 02:54:41;;;;;;;27.10;15.30;;;;;;;16.25;40.56;93698.59;4988059;28;20503;-90
2023/03/29 02:57:07;;;;;;;24.80;16.10;;;;;;;16.17;41.20;93706.50;4982957;28;20034;-90
2023/03/29 02:59:32;;;;;;;26.48;16.88;;;;;;;16.16;41.20;93698.81;4996234;28;20067;-90
2023/03/29 03:01:58;;;;;;;22.27;14.90;;;;;;;16.18;41.08;93710.72;5013706;28;20041;-90
2023/03/29 03:04:24;;;;;;;24.02;16.15;;;;;;;16.17;41.18;93711.97;5015249;28;20041;-91
2023/03/29 03:06:49;;;;;;;25.02;14.95;;;;;;;16.21;40.82;93704.31;4999548;28;20037;-90
2023/03/29 03:09:15;;;;;;;29.08;15.70;;;;;;;16.23;40.83;93684.72;5006431;28;20056;-90
2023/03/29 03:11:41;;;;;;;26.58;16.98;;;;;;;16.18;41.29;93686.19;5016584;28;20044;-90
2023/03/29 03:14:06;;;;;;;26.88;16.08;;;;;;;16.23;40.84;93684.72;4996403;28;20111;-91
2023/03/29 03:16:32;;;;;;;26.08;16.33;;;;;;;16.20;40.97;93693.88;4995282;28;20045;-90
2023/03/29 03:18:59;;;;;;;28.15;15.20;;;;;;;16.22;40.82;93692.16;5042972;28;20075;-91
2023/03/29 03:21:26;;;;;;;26.23;14.02;;;;;;;16.26;40.89;93695.38;5015737;28;20520;-89
2023/03/29 03:23:53;;;;;;;28.48;15.43;;;;;;;16.19;40.98;93681.47;5032124;28;20037;-90
2023/03/29 03:26:18;;;;;;;23.70;15.50;;;;;;;16.18;41.14;93675.28;5019172;28;20045;-90
2023/03/29 03:28:47;;;;;;;28.40;15.20;;;;;;;16.15;41.23;93667.31;5023377;28;20048;-90
2023/03/29 03:31:12;;;;;;;27.30;16.05;;;;;;;16.11;41.34;93667.53;5006604;28;20044;-91
2023/03/29 03:33:41;;;;;;;25.17;16.88;;;;;;;16.13;41.37;93669.78;5013696;28;20037;-89
2023/03/29 03:36:09;;;;;;;46.45;25.52;;;;;;;16.16;41.25;93674.28;5023252;28;20049;-89
2023/03/29 03:38:34;;;;;;;34.78;20.00;;;;;;;16.16;40.86;93679.72;5012624;28;20104;-89
2023/03/29 03:41:00;;;;;;;36.30;24.02;;;;;;;16.26;40.83;93665.38;5014080;28;20041;-87
2023/03/29 03:43:27;;;;;;;25.98;17.35;;;;;;;16.28;40.56;93659.44;5027180;28;20040;-88
2023/03/29 03:45:52;;;;;;;30.77;18.08;;;;;;;16.32;40.48;93665.41;4994191;28;20060;-87
2023/03/29 03:48:18;;;;;;;24.05;15.88;;;;;;;16.27;40.21;93661.41;5036475;28;20060;-88
2023/03/29 03:50:52;;;;;;;30.90;17.90;;;;;;;16.06;39.70;93658.09;5015296;28;20040;-87
2023/03/29 03:53:17;;;;;;;24.92;11.80;;;;;;;15.93;37.59;93657.81;5013338;28;20030;-87
2023/03/29 03:55:50;;;;;;;25.65;13.15;;;;;;;15.94;39.29;93658.56;5015095;28;20048;-88
2023/03/29 03:58:16;;;;;;;23.05;13.45;;;;;;;16.00;39.04;93649.16;5006088;28;20041;-87
2023/03/29 04:00:41;;;;;;;19.65;12.60;;;;;;;15.98;39.58;93657.09;5014740;28;20044;-88
2023/03/29 04:03:07;;;;;;;22.27;15.07;;;;;;;15.99;40.21;93652.38;5013662;28;20491;-87
2023/03/29 04:05:32;;;;;;;31.25;19.33;;;;;;;16.13;39.95;93650.69;5014726;28;20037;-87
2023/03/29 04:07:58;;;;;;;31.63;18.13;;;;;;;16.11;40.08;93643.00;5008068;28;20083;-90
2023/03/29 04:10:24;;;;;;;28.83;18.67;;;;;;;16.12;40.41;93647.22;5001198;28;20345;-89
2023/03/29 04:12:49;;;;;;;29.10;17.77;;;;;;;16.06;40.83;93638.25;5027957;28;20522;-89
2023/03/29 04:15:16;;;;;;;33.15;19.30;;;;;;;16.07;40.80;93637.03;4997968;28;20033;-89
2023/03/29 04:17:42;;;;;;;33.72;18.40;;;;;;;16.05;40.51;93653.13;5029302;28;20768;-87
2023/03/29 04:20:10;;;;;;;31.70;17.13;;;;;;;16.10;40.78;93652.41;5022609;28;20045;-88
2023/03/29 04:22:36;;;;;;;31.40;16.58;;;;;;;16.09;40.46;93650.94;5012638;28;20514;-89
2023/03/29 04:25:01;;;;;;;27.88;17.73;;;;;;;16.10;40.09;93649.69;5014793;28;20114;-88
2023/03/29 04:27:26;;;;;;;27.33;14.95;;;;;;;16.06;40.50;93651.91;5018759;28;20771;-88
2023/03/29 04:29:52;;;;;;;30.15;16.58;;;;;;;16.03;40.71;93650.16;5001409;28;20042;-88
2023/03/29 04:32:17;;;;;;;27.92;16.90;;;;;;;16.00;40.69;93651.16;4997466;28;20045;-89
2023/03/29 04:34:43;;;;;;;26.35;17.02;;;;;;;16.24;40.76;93656.94;5014960;28;20059;-89
2023/03/29 04:37:08;;;;;;;26.88;14.93;;;;;;;16.14;40.63;93652.19;5022929;28;20045;-87
2023/03/29 04:39:35;;;;;;;24.35;14.68;;;;;;;16.11;40.35;93651.94;5015602;28;20037;-88
2023/03/29 04:42:01;;;;;;;24.38;14.32;;;;;;;16.13;40.84;93653.44;4995948;28;20041;-87
2023/03/29 04:44:27;;;;;;;27.45;15.82;;;;;;;16.11;40.74;93648.47;5013116;28;20131;-87
2023/03/29 04:46:52;;;;;;;26.95;13.68;;;;;;;16.17;40.75;93649.22;5016111;28;20045;-91
2023/03/29 04:49:18;;;;;;;23.98;14.60;;;;;;;16.25;40.36;93657.69;5004194;28;20396;-88
2023/03/29 04:51:43;;;;;;;22.88;13.40;;;;;;;16.22;40.46;93656.69;4994347;28;20048;-88
2023/03/29 04:54:09;;;;;;;21.65;14.50;;;;;;;16.27;40.22;93649.75;4995248;28;20061;-86
2023/03/29 04:56:34;;;;;;;79.70;20.08;;;;;;;16.17;39.15;93662.13;5026927;28;20057;-86
2023/03/29 04:59:00;;;;;;;468.30;83.60;;;;;;;15.91;37.64;93654.06;5011082;28;20183;-89
2023/03/29 05:01:25;;;;;;;310.77;56.33;;;;;;;15.94;37.58;93661.28;5006133;28;20400;-87
2023/03/29 05:03:51;;;;;;;221.02;38.38;;;;;;;15.94;38.54;93656.56;4995012;28;20053;-89
2023/03/29 05:06:16;;;;;;;137.73;31.98;;;;;;;15.96;39.10;93654.09;5005535;28;20382;-88
2023/03/29 05:08:42;;;;;;;127.80;33.70;;;;;;;16.02;38.97;93637.78;5011245;28;20582;-87
2023/03/29 05:11:08;;;;;;;84.35;33.13;;;;;;;16.18;39.26;93652.72;5017578;28;20060;-86
2023/03/29 05:13:34;;;;;;;117.93;49.88;;;;;;;16.25;39.47;93633.13;5017087;28;20036;-87
2023/03/29 05:15:59;;;;;;;135.18;58.03;;;;;;;16.20;39.33;93636.59;4985873;28;20046;-87
2023/03/29 05:18:27;;;;;;;179.48;78.60;;;;;;;16.21;39.59;93641.56;5011330;28;20657;-86
2023/03/29 05:20:53;;;;;;;286.65;125.25;;;;;;;16.17;39.82;93634.84;5016779;28;20116;-87
2023/03/29 05:23:19;;;;;;;240.07;109.38;;;;;;;16.30;39.66;93635.88;5049383;28;20111;-87
2023/03/29 05:25:47;;;;;;;258.73;119.40;;;;;;;16.24;39.52;93637.84;4983255;28;20041;-88
2023/03/29 05:28:12;;;;;;;269.98;128.50;;;;;;;16.30;39.51;93633.16;5005922;28;20042;-89
2023/03/29 05:30:39;;;;;;;426.10;216.25;;;;;;;16.23;39.82;93633.63;5011825;28;20033;-87
2023/03/29 05:33:05;;;;;;;466.63;226.13;;;;;;;16.20;39.85;93633.88;5009019;28;20043;-87
2023/03/29 05:35:30;;;;;;;412.98;200.38;;;;;;;16.15;39.45;93629.88;5009659;28;20033;-87
2023/03/29 05:37:59;;;;;;;407.02;197.20;;;;;;;16.20;39.46;93622.97;4984785;28;20037;-88
2023/03/29 05:40:25;;;;;;;345.88;170.50;;;;;;;16.28;39.63;93624.72;5011534;28;20049;-86
2023/03/29 05:42:51;;;;;;;316.10;151.35;;;;;;;16.28;39.60;93618.50;4998896;28;20239;-88
2023/03/29 05:45:17;;;;;;;348.08;164.10;;;;;;;16.35;39.67;93620.78;4998908;28;20041;-87
2023/03/29 05:47:42;;;;;;;389.40;188.07;;;;;;;16.25;39.77;93622.97;5026351;28;20155;-90
2023/03/29 05:50:09;;;;;;;389.90;184.30;;;;;;;16.20;39.97;93626.44;5007803;28;20029;-90
2023/03/29 05:52:35;;;;;;;335.70;151.00;;;;;;;16.35;39.53;93618.78;5042624;28;20045;-90
2023/03/29 05:55:03;;;;;;;330.73;150.75;;;;;;;16.29;39.96;93625.47;5020460;28;20072;-91
2023/03/29 05:57:28;;;;;;;319.08;152.80;;;;;;;16.35;39.69;93620.78;4987699;28;20049;-89
2023/03/29 05:59:55;;;;;;;366.05;183.15;;;;;;;16.18;39.85;93623.44;5019280;28;20049;-89
2023/03/29 06:02:20;;;;;;;338.50;148.70;;;;;;;16.30;39.79;93621.50;4994713;28;20393;-89
2023/03/29 06:04:46;;;;;;;371.15;186.25;;;;;;;16.20;39.94;93636.59;4985937;28;20095;-89
2023/03/29 06:07:11;;;;;;;378.58;179.25;;;;;;;16.24;39.97;93628.94;5011325;28;20511;-89
2023/03/29 06:09:38;;;;;;;324.52;153.60;;;;;;;16.31;39.83;93621.00;5000656;28;20042;-88
2023/03/29 06:12:04;;;;;;;321.00;159.50;;;;;;;16.30;39.78;93629.69;5003625;28;20037;-87
2023/03/29 06:14:30;;;;;;;338.42;160.77;;;;;;;16.32;39.91;93629.94;5008519;28;20369;-86
2023/03/29 06:16:55;;;;;;;320.33;150.07;;;;;;;16.39;39.69;93630.22;5017519;28;20579;-91
2023/03/29 06:19:21;;;;;;;343.60;172.18;;;;;;;16.42;39.92;93628.47;5013698;28;20128;-89
2023/03/29 06:21:46;;;;;;;326.98;150.77;;;;;;;16.38;39.64;93633.44;4953545;28;20046;-89
2023/03/29 06:24:12;;;;;;;322.52;157.10;;;;;;;16.28;39.87;93627.44;4967977;28;20499;-88
2023/03/29 06:26:37;;;;;;;312.63;142.50;;;;;;;16.32;40.11;93622.50;4962728;28;20114;-89
2023/03/29 06:29:03;;;;;;;250.75;118.03;;;;;;;16.40;39.68;93626.25;4933185;28;20405;-89
2023/03/29 06:31:30;;;;;;;259.48;128.23;;;;;;;16.39;39.64;93618.56;4945734;28;20668;-88
2023/03/29 06:33:57;;;;;;;252.85;123.95;;;;;;;16.39;40.06;93622.03;4934375;28;20526;-88
2023/03/29 06:36:22;;;;;;;240.65;111.57;;;;;;;16.30;40.05;93622.25;4949081;28;20042;-89
2023/03/29 06:38:51;;;;;;;284.38;122.78;;;;;;;16.37;39.81;93624.50;4959844;28;20502;-88
2023/03/29 06:41:16;;;;;;;256.67;121.03;;;;;;;16.39;40.24;93618.56;4964510;28;20125;-88
2023/03/29 06:43:42;;;;;;;219.50;101.47;;;;;;;16.41;39.88;93621.53;4973020;28;20065;-88
2023/03/29 06:46:10;;;;;;;232.88;79.07;;;;;;;16.18;38.26;93617.25;4959086;28;20549;-88
2023/03/29 06:48:37;;;;;;;97.00;32.42;;;;;;;15.98;35.77;93618.19;4961055;28;20042;-89
2023/03/29 06:51:04;;;;;;;59.97;20.90;;;;;;;15.79;34.93;93617.09;4960601;28;20093;-88
2023/03/29 06:53:31;;;;;;;53.30;22.00;;;;;;;15.75;35.38;93614.59;4995492;28;20049;-88
2023/03/29 06:55:56;;;;;;;69.45;25.75;;;;;;;15.80;35.60;93624.78;4998979;28;20033;-89
2023/03/29 06:58:21;;;;;;;116.13;35.55;;;;;;;15.84;35.37;93628.00;4995821;28;20041;-88
2023/03/29 07:00:47;;;;;;;106.38;38.95;;;;;;;15.91;36.02;93626.81;5000574;28;20293;-87
2023/03/29 07:03:18;;;;;;;132.27;52.03;;;;;;;16.07;36.18;93628.84;5004205;28;20038;-87
2023/03/29 07:05:46;;;;;;;131.63;60.72;;;;;;;16.01;36.89;93626.13;5015861;28;20567;-89
2023/03/29 07:08:13;;;;;;;146.18;69.57;;;;;;;16.07;37.45;93621.41;5003403;28;20136;-88
2023/03/29 07:10:42;;;;;;;189.27;83.00;;;;;;;16.08;38.45;93620.19;5008691;28;20124;-88
2023/03/29 07:13:11;;;;;;;214.75;110.70;;;;;;;16.20;38.44;93622.97;5008484;28;20411;-88
2023/03/29 07:15:36;;;;;;;244.27;125.25;;;;;;;16.25;38.62;93627.66;5005120;28;20045;-92
2023/03/29 07:18:03;;;;;;;181.77;89.22;;;;;;;16.23;39.18;93621.97;5011892;28;20037;-89
2023/03/29 07:20:37;;;;;;;263.77;138.63;;;;;;;16.25;38.95;93622.97;5008697;28;20033;-89
2023/03/29 07:23:02;;;;;;;232.02;109.40;;;;;;;16.20;39.23;93620.97;4997709;28;20052;-89
2023/03/29 07:25:29;;;;;;;254.07;120.32;;;;;;;16.11;38.92;93629.38;5014002;28;20038;-88
2023/03/29 07:27:55;;;;;;;254.65;138.27;;;;;;;16.23;39.11;93621.97;5001502;28;20030;-90
2023/03/29 07:30:23;;;;;;;310.77;162.52;;;;;;;16.28;38.73;93618.50;5003321;28;20045;-90
2023/03/29 07:32:49;;;;;;;289.30;165.50;;;;;;;16.29;38.65;93631.66;5003915;28;20042;-89
2023/03/29 07:35:16;;;;;;;272.50;149.55;;;;;;;16.29;38.78;93636.38;5015367;28;20037;-90
2023/03/29 07:37:43;;;;;;;296.17;166.95;;;;;;;16.29;38.79;93634.38;5008964;28;20044;-91
2023/03/29 07:40:14;;;;;;;304.88;159.70;;;;;;;16.23;39.36;93644.56;5008165;28;20042;-88
2023/03/29 07:42:42;;;;;;;291.08;156.70;;;;;;;16.27;39.16;93639.59;5017015;28;20038;-89
2023/03/29 07:45:08;;;;;;;286.90;149.63;;;;;;;16.29;39.15;93634.38;5008761;28;20500;-88
2023/03/29 07:47:36;;;;;;;277.58;152.13;;;;;;;16.25;39.38;93641.31;5000857;28;20038;-88
2023/03/29 07:50:02;;;;;;;273.55;144.07;;;;;;;16.26;39.18;93642.81;4995217;28;20034;-89
2023/03/29 07:52:28;;;;;;;283.08;147.48;;;;;;;16.22;39.66;93632.16;5011305;28;20037;-89
2023/03/29 07:54:55;;;;;;;310.45;154.15;;;;;;;16.19;39.32;93637.84;5011767;28;20037;-90
2023/03/29 07:57:22;;;;;;;270.58;146.77;;;;;;;16.15;39.13;93629.88;4999474;28;20044;-90
2023/03/29 07:59:47;;;;;;;270.33;135.30;;;;;;;16.24;39.48;93629.66;4982760;28;20042;-89
2023/03/29 08:02:13;;;;;;;278.83;143.80;;;;;;;16.30;39.41;93630.41;4999816;28;20033;-90
2023/03/29 08:04:39;;;;;;;265.20;140.75;;;;;;;16.26;39.33;93626.44;4997401;28;20038;-89
2023/03/29 08:07:04;;;;;;;258.17;137.05;;;;;;;16.27;39.34;93636.84;5009525;28;20041;-88
2023/03/29 08:09:30;;;;;;;226.20;112.95;;;;;;;16.35;39.16;93626.22;5013545;28;20508;-88
2023/03/29 08:11:57;;;;;;;257.65;123.20;;;;;;;16.31;39.20;93633.91;4999136;28;20508;-89
2023/03/29 08:14:24;;;;;;;262.00;126.50;;;;;;;16.31;39.21;93636.63;5002532;28;20507;-88
2023/03/29 08:16:51;;;;;;;233.43;122.15;;;;;;;16.38;39.29;93634.19;5009451;28;20388;-89
2023/03/29 08:19:17;;;;;;;262.98;129.90;;;;;;;16.27;39.42;93628.69;5014233;28;20440;-89
2023/03/29 08:21:43;;;;;;;231.27;119.50;;;;;;;16.42;39.13;93623.03;5015615;28;20057;-90
2023/03/29 08:24:08;;;;;;;250.25;118.93;;;;;;;16.36;39.41;93616.81;5014213;28;20678;-90
2023/03/29 08:26:34;;;;;;;255.50;127.95;;;;;;;16.33;39.26;93612.31;5008785;28;20060;-89
2023/03/29 08:28:59;;;;;;;236.63;115.00;;;;;;;16.33;39.53;93602.16;5012526;28;20056;-88
2023/03/29 08:31:25;;;;;;;247.25;122.85;;;;;;;16.37;39.38;93618.28;5004423;28;20551;-90
2023/03/29 08:33:52;;;;;;;253.52;139.05;;;;;;;16.41;39.34;93603.19;5006773;28;20123;-89
2023/03/29 08:36:17;;;;;;;302.83;161.45;;;;;;;16.49;39.29;93608.88;4983923;28;20045;-87
2023/03/29 08:38:42;;;;;;;276.30;132.70;;;;;;;16.37;39.49;93604.66;5011068;28;20585;-87
2023/03/29 08:41:19;;;;;;;264.88;124.63;;;;;;;16.37;39.17;93607.38;4978588;28;20042;-89
2023/03/29 08:43:51;;;;;;;237.32;112.57;;;;;;;16.41;39.49;93614.09;4995719;28;20051;-89
2023/03/29 08:46:35;;;;;;;221.70;115.72;;;;;;;16.49;39.56;93605.41;4994132;28;20045;-89
2023/03/29 08:49:01;;;;;;;256.25;131.18;;;;;;;16.32;39.40;93616.28;4990685;28;20529;-90
2023/03/29 08:51:29;;;;;;;278.08;136.82;;;;;;;16.45;39.81;93608.41;5012532;28;20091;-89
2023/03/29 08:54:00;;;;;;;248.10;130.90;;;;;;;16.49;40.04;93621.78;4997433;28;20615;-90
2023/03/29 08:56:26;;;;;;;;;;;;;;;16.40;39.55;93617.31;5018052;28;20129;-90
2023/03/29 08:58:52;;;;;;;286.38;137.40;;;;;;;16.40;39.52;93618.06;5022817;28;20072;-91
2023/03/29 09:01:18;;;;;;;278.65;145.32;;;;;;;16.40;39.61;93620.03;5011694;28;20523;-91
2023/03/29 09:03:58;;;;;;;276.80;152.07;;;;;;;16.34;39.56;93627.47;5030822;28;20042;-91
2023/03/29 09:06:25;;;;;;;310.10;161.90;;;;;;;16.31;39.83;93615.53;5025394;28;20068;-92
2023/03/29 09:08:51;;;;;;;326.30;151.73;;;;;;;16.34;40.07;93624.72;5002257;28;20092;-89
2023/03/29 09:11:22;;;;;;;278.80;147.70;;;;;;;16.43;40.19;93627.25;5013266;28;20051;-90
2023/03/29 09:13:48;;;;;;;280.00;151.82;;;;;;;16.53;40.34;93619.56;5033479;28;20507;-90
2023/03/29 09:16:43;;;;;;;285.92;150.85;;;;;;;16.43;40.33;93624.53;5046974;28;20053;-90
2023/03/29 09:19:41;;;;;;;274.05;151.85;;;;;;;16.33;40.19;93628.69;5019680;28;20128;-90
2023/03/29 09:22:26;;;;;;;282.60;143.57;;;;;;;16.41;40.39;93616.06;5021937;28;20144;-90
2023/03/29 09:25:29;;;;;;;270.77;135.32;;;;;;;16.40;40.45;93612.59;5003847;28;20052;-92
2023/03/29 09:28:00;;;;;;;257.63;131.93;;;;;;;16.46;40.77;93616.06;5044476;28;20048;-91
2023/03/29 09:30:26;;;;;;;;;;;;;;;16.42;40.58;93621.03;5014305;28;20041;-90
2023/03/29 09:33:11;;;;;;;241.23;123.60;;;;;;;16.54;40.42;93604.69;5033071;28;19928;-90
2023/03/29 09:35:40;;;;;;;258.05;127.68;;;;;;;16.40;40.20;93617.31;5002454;28;20040;-90
2023/03/29 09:38:08;;;;;;;257.58;126.57;;;;;;;16.41;40.80;93613.34;5000628;28;20067;-88
2023/03/29 09:40:44;;;;;;;243.50;124.97;;;;;;;16.37;40.32;93618.28;4999965;28;20036;-88
2023/03/29 09:43:11;;;;;;;253.65;132.30;;;;;;;16.39;40.09;93611.13;5017316;28;20186;-90
2023/03/29 09:45:38;;;;;;;226.18;121.15;;;;;;;16.55;40.49;93606.19;5002852;28;20040;-90
2023/03/29 09:48:16;;;;;;;255.85;132.65;;;;;;;16.44;40.39;93609.63;5020205;28;20049;-91
2023/03/29 09:50:43;;;;;;;250.02;127.05;;;;;;;16.53;40.63;93609.41;5019807;28;20102;-90
2023/03/29 09:53:09;;;;;;;279.83;138.80;;;;;;;16.53;40.94;93608.66;5002748;28;20037;-89
2023/03/29 09:55:36;;;;;;;275.27;141.98;;;;;;;16.41;40.23;93603.19;5019375;28;20093;-90
2023/03/29 09:58:14;;;;;;;295.40;145.40;;;;;;;16.37;40.44;93596.47;5035678;28;20147;-89
2023/03/29 10:00:39;;;;;;;311.13;132.70;;;;;;;16.47;40.85;93600.44;5004495;28;20045;-91
2023/03/29 10:03:04;;;;;;;283.65;146.38;;;;;;;16.40;40.63;93609.13;5025333;28;20127;-90
2023/03/29 10:05:32;;;;;;;283.60;144.45;;;;;;;16.38;40.30;93604.16;5011522;28;20049;-91
2023/03/29 10:07:58;;;;;;;281.55;141.27;;;;;;;16.48;40.77;93593.00;5005522;28;20404;-91
2023/03/29 10:10:28;;;;;;;274.77;142.45;;;;;;;16.54;40.98;93591.03;4993512;28;20056;-91
2023/03/29 10:12:58;;;;;;;268.10;135.77;;;;;;;16.41;40.52;93583.34;4994759;28;20202;-90
2023/03/29 10:15:26;;;;;;;249.75;131.30;;;;;;;16.50;41.34;93585.81;5010201;28;20091;-91
2023/03/29 10:17:57;;;;;;;238.63;129.32;;;;;;;16.53;41.02;93581.38;4997462;28;20111;-91
2023/03/29 10:20:23;;;;;;;250.95;128.10;;;;;;;16.58;41.66;93584.09;4997768;28;20064;-91
2023/03/29 10:22:53;;;;;;;243.73;127.32;;;;;;;16.47;40.92;93584.06;5012651;28;20037;-91
2023/03/29 10:25:19;;;;;;;238.43;123.78;;;;;;;16.49;40.48;93581.59;4987730;28;20071;-91
2023/03/29 10:27:45;;;;;;;229.30;121.90;;;;;;;16.45;40.79;93587.28;4981519;28;20042;-91
2023/03/29 10:30:17;;;;;;;225.80;118.60;;;;;;;16.54;41.34;93569.94;5007836;28;20128;-91
2023/03/29 10:32:43;;;;;;;196.77;107.80;;;;;;;16.44;40.59;93574.16;5006193;28;20057;-92
2023/03/29 10:35:20;;;;;;;216.00;110.18;;;;;;;16.42;40.59;93566.47;4975124;28;20045;-91
2023/03/29 10:37:48;;;;;;;195.93;107.95;;;;;;;16.42;40.87;93560.28;4993235;28;20053;-92
2023/03/29 10:40:20;;;;;;;203.35;106.55;;;;;;;16.56;42.00;93559.28;4989659;28;20159;-91
2023/03/29 10:42:48;;;;;;;194.32;106.07;;;;;;;16.57;41.36;93560.78;4994211;28;20038;-91
2023/03/29 10:45:24;;;;;;;187.35;101.10;;;;;;;16.49;40.68;93564.47;4994310;28;20551;-92
2023/03/29 10:47:49;;;;;;;194.70;104.10;;;;;;;16.47;41.38;93564.97;5009658;28;20049;-92
2023/03/29 10:50:15;;;;;;;173.48;97.95;;;;;;;16.49;40.37;93569.94;5013276;28;20042;-91
2023/03/29 10:52:41;;;;;;;181.18;95.93;;;;;;;16.54;41.23;93569.22;4977086;28;20069;-91
2023/03/29 10:55:10;;;;;;;194.45;103.10;;;;;;;16.57;42.18;93571.69;5002511;28;20056;-91
2023/03/29 10:57:48;;;;;;;180.63;97.63;;;;;;;16.59;41.97;93565.75;4999629;28;20038;-91
2023/03/29 11:00:22;;;;;;;200.60;99.68;;;;;;;16.46;40.92;93558.78;5009953;28;20387;-90
2023/03/29 11:02:47;;;;;;;206.48;96.53;;;;;;;16.48;40.99;93565.72;5012987;28;20068;-90
2023/03/29 11:05:32;;;;;;;208.38;96.15;;;;;;;16.45;40.61;93559.28;5012579;28;20065;-90
2023/03/29 11:08:19;;;;;;;186.30;93.97;;;;;;;16.58;41.14;93570.47;4993543;28;20100;-88
2023/03/29 11:10:56;;;;;;;212.98;100.07;;;;;;;16.63;41.82;93566.25;4984138;28;20041;-93
2023/03/29 11:13:40;;;;;;;202.27;101.13;;;;;;;16.65;41.59;93559.09;5008818;28;20068;-90
2023/03/29 11:16:27;;;;;;;226.00;108.28;;;;;;;16.56;40.97;93556.56;5041306;28;20116;-90